This is the latest recevied weather packets stored in our database for station/object HS2LXA-WX. If no packets are shown the sender has not sent any weather packets the latest 10 day(s).
| Time | Temp. | Humidity | Pressure | Rain* | Wind** | Luminosity | Snow |
|---|---|---|---|---|---|---|---|
| 1777489246 | 31.67° C | 78% | 1013.1 hPa | 0 mm | - | - | - |
| 1777488642 | 31.67° C | 77% | 1013.1 hPa | 0 mm | - | - | - |
| 1777488038 | 31.67° C | 77% | 1013.1 hPa | 0 mm | - | - | - |
| 1777487434 | 31.67° C | 78% | 1013.2 hPa | 0 mm | - | - | - |
| 1777486830 | 31.67° C | 77% | 1013.1 hPa | 0 mm | - | - | - |
| 1777486225 | 31.67° C | 79% | 1013.1 hPa | 0 mm | - | - | - |
| 1777485621 | 31.67° C | 77% | 1013.1 hPa | 0 mm | - | - | - |
| 1777485019 | 31.67° C | 77% | 1013.2 hPa | 0 mm | - | - | - |
| 1777484415 | 31.67° C | 76% | 1013.2 hPa | 0 mm | - | - | - |
| 1777483810 | 31.67° C | 77% | 1013.2 hPa | 0 mm | - | - | - |
| 1777483211 | 31.67° C | 77% | 1013.2 hPa | 0 mm | - | - | - |
| 1777482605 | 31.67° C | 76% | 1013.1 hPa | 0 mm | - | - | - |
| 1777482001 | 32.22° C | 74% | 1013.1 hPa | 0 mm | - | - | - |
| 1777480672 | 32.22° C | 73% | 1013.1 hPa | 0 mm | - | - | - |
| 1777479703 | 32.22° C | 72% | 1013.2 hPa | 0 mm | - | - | - |
| 1777478098 | 32.78° C | 71% | 1013.1 hPa | 0 mm | - | - | - |
| 1777477055 | 32.78° C | 71% | 1013.1 hPa | 0 mm | - | - | - |
| 1777476456 | 32.78° C | 72% | 1013.1 hPa | 0 mm | - | - | - |
| 1777473544 | 32.22° C | 74% | 1013.2 hPa | 0 mm | - | - | - |
| 1777472328 | 30.56° C | 85% | 1013.2 hPa | 0 mm | - | - | - |
| 1777471728 | 30° C | 87% | 1013.2 hPa | 0 mm | - | - | - |
| 1777471128 | 30° C | 87% | 1013.1 hPa | 0 mm | - | - | - |
| 1777468991 | 30° C | 86% | 1013.2 hPa | 0 mm | - | - | - |
| 1777468389 | 30° C | 87% | 1013.1 hPa | 0 mm | - | - | - |
| 1777467789 | 30.56° C | 87% | 1013.2 hPa | 0 mm | - | - | - |
* Rain latest hour (hover to see other rain measurements)
** Current wind speed in m/s (hover to see current wind gust speed)